Avondale, Washington
Current Conditions -  °F | °C
As of 4:53 PM on Friday 28 Nov 2014 (Local Time) from KBFI Reporting Station
Light Rain Light Rain  
Wind Chill:   Ceiling: 900
Heat Index:   Visibility: 5mi
Dew Point:   Wind: 5mph
Humidity: 83%   Direction: 90°E
Pressure: 29.49"   Gusts: NA
Location:  47.6833°N, 122.123°W
Report Text: KBFI 290053Z 09004KT 5SM -RA BKN009 OVC024 04/02 A2949 RMK AO2 SLP986 P0009 T00440017
Loading
Personal Weather Stations






























Interactive Weather Map New forecast layout! Learn more

10-Day Weather Forecast

Advertisements
Track Severe Weather on mobile